53NY weather

Smiths Land Base Airport
Honeoye Falls, New York, United States

Public forecast

Using degrees Fahrenheit for public forecast. Weather courtesy of forecast.io.

METAR (pilot weather report)

Closest report is Greater Rochester International Airport, 10.0 nm (18.4 km) NNW. Retrieved 2019/05/27 00:54 UTC (35 minutes ago):

KROC 270054Z 30004KT 10SM FEW150 SCT200 BKN250 19/08 A2996 RMK AO2 SLP147 T01890083

TAF (pilot weather forecast)

Forecast is more than 12 hours old.

Closest forecast is Greater Rochester International Airport, 10.0 nm (18.4 km) NNW. Retrieved 2019/05/26 00:34 UTC (1 day ago):

TAF KROC 262330Z 2700/2724 33008KT P6SM SCT250 FM270300 VRB03KT P6SM FEW250 FM271800 33007KT P6SM SCT250 FM272000 02010KT P6SM FEW250